Terminal Aerodrome Forecast
Issued by NWS Jackson, KY

Home | Current Version | Previous Version | Text Only | Print | Product List | Glossary On
Versions: 1 2 3 4 5 6 7 8 9 10 11 12 13 14 15 16 17 18 19 20 21 22 23
000
FTUS43 KJKL 140500
TAFLOZ
TAF
KLOZ 140536Z 1406/1506 21013G21KT P6SM BKN200 WS015/20045KT
     FM141300 20015G23KT P6SM -SHRA OVC060
     FM141700 21017G30KT P6SM OVC050
     FM142300 19010G18KT P6SM OVC080=

USA.gov is the U.S. government's official web portal to all federal, state and local government web resources and services.